Time;durP1;ratioP1;P1;durP2;ratioP2;P2;SDS_P1;SDS_P2;PMS_P1;PMS_P2;Temp;Humidity;BMP_temperature;BMP_pressure;BME280_temperature;BME280_humidity;BME280_pressure;Samples;Min_cycle;Max_cycle;Signal;HPM_P1;HPM_P2
2022/12/15 00:39:42;;;;;;;7.85;5.53;;;;;;;-3.94;75.04;99751.53;4980779;28;20056;-75
2022/12/15 00:42:08;;;;;;;10.27;5.47;;;;;;;-4.00;75.00;99753.34;4980109;28;20041;-78
2022/12/15 00:44:33;;;;;;;9.45;5.05;;;;;;;-3.91;75.12;99759.31;4962209;28;20044;-78
2022/12/15 00:46:58;;;;;;;9.95;6.93;;;;;;;-3.89;75.22;99756.69;4977821;28;20120;-76
2022/12/15 01:22:05;;;;;;;9.50;5.50;;;;;;;-3.93;74.28;99786.25;4997474;28;20615;-76
2022/12/15 01:24:29;;;;;;;10.90;6.07;;;;;;;-3.93;74.89;99786.25;4999593;28;20041;-71
2022/12/15 01:26:54;;;;;;;9.45;5.38;;;;;;;-4.05;75.20;99792.44;4963922;28;20048;-80
2022/12/15 01:29:19;;;;;;;10.80;5.60;;;;;;;-4.11;74.86;99788.19;4990840;28;20488;-79
2022/12/15 01:31:43;;;;;;;9.63;5.97;;;;;;;-4.13;75.18;99789.94;4949599;28;20408;-77
2022/12/15 01:34:08;;;;;;;10.75;7.70;;;;;;;-4.29;75.03;99792.72;5011709;28;20049;-76
2022/12/15 01:36:33;;;;;;;9.40;5.07;;;;;;;-4.22;75.44;99792.63;4976788;28;20456;-78
2022/12/15 01:38:57;;;;;;;9.20;6.05;;;;;;;-4.22;75.47;99800.44;4990043;28;20037;-78
2022/12/15 01:41:22;;;;;;;10.00;5.68;;;;;;;-4.29;75.45;99792.72;4980546;28;20040;-79
2022/12/15 01:43:47;;;;;;;9.52;5.63;;;;;;;-4.24;75.05;99802.19;4980826;28;20120;-74
2022/12/15 01:46:16;;;;;;;9.38;6.18;;;;;;;-4.32;75.20;99808.34;4983287;28;20111;-77
2022/12/15 01:48:46;;;;;;;10.93;5.85;;;;;;;-4.43;75.79;99817.13;4980072;28;20065;-83
2022/12/15 01:51:39;;;;;;;10.20;6.05;;;;;;;-4.56;76.13;99814.63;4981997;28;20048;-77
2022/12/15 01:54:22;;;;;;;13.05;6.57;;;;;;;-4.58;75.95;99814.63;4970106;28;20081;-80
2022/12/15 01:56:51;;;;;;;10.85;5.85;;;;;;;-4.63;76.44;99820.75;4982582;28;20037;-71
2022/12/15 01:59:22;;;;;;;13.20;7.20;;;;;;;-4.62;75.95;99814.66;4961218;28;20042;-72
2022/12/15 02:01:47;;;;;;;10.32;6.10;;;;;;;-4.79;76.13;99814.78;4978014;28;20029;-73
2022/12/15 02:04:13;;;;;;;12.30;6.40;;;;;;;-4.93;76.85;99803.59;4957055;28;20050;-72
2022/12/15 02:06:38;;;;;;;12.98;6.88;;;;;;;-4.81;77.08;99814.78;4957961;28;20061;-72
2022/12/15 02:09:03;;;;;;;10.15;6.45;;;;;;;-4.87;77.26;99827.84;4987684;28;20037;-73
2022/12/15 02:11:38;;;;;;;15.95;8.23;;;;;;;-4.99;76.93;99825.31;4973713;28;20536;-74
2022/12/15 02:14:09;;;;;;;10.65;6.40;;;;;;;-4.90;77.11;99827.00;4963502;28;20053;-77
2022/12/15 02:17:28;;;;;;;10.93;6.63;;;;;;;-4.92;77.86;99831.34;4941165;28;20026;-73
2022/12/15 02:20:12;;;;;;;10.68;6.85;;;;;;;-4.97;78.39;99828.78;4920697;28;20098;-76
2022/12/15 02:22:58;;;;;;;14.38;6.35;;;;;;;-4.78;78.23;99838.19;4913460;28;20438;-79
2022/12/15 02:25:53;;;;;;;10.15;5.97;;;;;;;-4.65;78.22;99835.50;4919544;28;20143;-83
2022/12/15 02:28:36;;;;;;;12.43;7.90;;;;;;;-4.73;77.81;99838.13;4884247;29;20067;-77
2022/12/15 02:34:30;;;;;;;13.45;6.63;;;;;;;-4.49;77.53;99847.50;4924186;28;20082;-73
2022/12/15 02:37:01;;;;;;;11.98;7.22;;;;;;;-4.49;77.17;99847.50;4911204;28;20193;-74
2022/12/15 02:39:26;;;;;;;12.27;7.07;;;;;;;-4.42;76.59;99847.47;4910177;28;20034;-76
2022/12/15 02:41:51;;;;;;;11.13;6.45;;;;;;;-4.32;76.33;99852.59;4938419;28;20059;-80
2022/12/15 02:44:24;;;;;;;10.88;6.50;;;;;;;-4.40;76.26;99853.50;4919891;28;20105;-69
2022/12/15 02:47:10;;;;;;;11.38;6.35;;;;;;;-4.36;76.41;99851.75;4904629;28;20039;-71
2022/12/15 02:50:09;;;;;;;10.90;6.53;;;;;;;-4.22;76.54;99846.44;4922263;28;20173;-71
2022/12/15 02:52:55;;;;;;;11.35;6.68;;;;;;;-4.14;76.65;99849.81;4890317;28;20055;-72
2022/12/15 02:55:34;;;;;;;13.32;7.07;;;;;;;-4.12;76.71;99848.06;4988120;28;20037;-69
2022/12/15 02:58:34;;;;;;;10.75;6.30;;;;;;;-3.93;76.57;99851.34;4977405;28;20049;-70
2022/12/15 03:01:19;;;;;;;11.88;6.00;;;;;;;-3.91;76.35;99845.25;4972913;28;20045;-68
2022/12/15 03:03:47;;;;;;;9.90;6.45;;;;;;;-3.97;76.20;99853.13;4971595;28;20095;-74
2022/12/15 03:06:12;;;;;;;11.13;6.50;;;;;;;-4.01;75.53;99843.63;4968604;28;20117;-69
2022/12/15 03:08:36;;;;;;;10.15;6.30;;;;;;;-4.01;75.91;99830.59;5004106;28;20080;-68
2022/12/15 03:11:01;;;;;;;15.93;7.55;;;;;;;-3.92;76.06;99840.91;4981931;28;20045;-66
2022/12/15 03:13:26;;;;;;;9.70;5.75;;;;;;;-3.90;76.04;99844.38;5000394;28;20041;-67
2022/12/15 03:15:53;;;;;;;10.02;6.55;;;;;;;-4.04;74.93;99843.63;5002281;28;20048;-68
2022/12/15 03:18:17;;;;;;;9.85;5.53;;;;;;;-3.93;75.31;99848.75;5005080;28;20068;-68
2022/12/15 03:20:48;;;;;;;9.68;6.38;;;;;;;-3.91;75.94;99847.00;4983949;28;20153;-71
2022/12/15 03:23:14;;;;;;;10.43;6.20;;;;;;;-4.01;75.11;99851.44;4951975;28;20041;-69
2022/12/15 03:25:39;;;;;;;10.20;5.93;;;;;;;-4.07;74.87;99857.56;4963655;28;20033;-69
2022/12/15 03:28:04;;;;;;;11.60;6.90;;;;;;;-3.99;74.83;99857.50;4997316;28;20045;-67
2022/12/15 03:30:28;;;;;;;12.30;7.00;;;;;;;-4.08;75.25;99852.38;4982664;28;20063;-68
2022/12/15 03:32:55;;;;;;;11.85;6.82;;;;;;;-4.03;74.67;99848.84;4997878;28;20045;-74
2022/12/15 03:35:20;;;;;;;11.82;7.80;;;;;;;-4.04;75.08;99860.13;4982095;28;20061;-71
2022/12/15 03:37:45;;;;;;;9.75;6.57;;;;;;;-4.05;74.45;99860.13;4981193;28;20077;-72
2022/12/15 03:40:12;;;;;;;9.15;5.80;;;;;;;-3.84;75.02;99861.69;4977563;28;20480;-71
2022/12/15 03:43:10;;;;;;;11.07;6.55;;;;;;;-3.95;74.63;99856.56;4977398;28;20041;-71
2022/12/15 03:45:28;;;;;;;9.00;5.88;;;;;;;-3.89;74.66;99855.66;4974469;28;20072;-71
2022/12/15 03:47:54;;;;;;;11.32;6.45;;;;;;;-3.82;74.70;99859.91;5000112;28;20045;-69
2022/12/15 03:50:22;;;;;;;11.23;6.47;;;;;;;-3.80;74.77;99859.03;4983332;28;20381;-70
2022/12/15 03:52:55;;;;;;;14.30;7.25;;;;;;;-3.91;74.58;99866.09;4987100;28;20092;-69
2022/12/15 03:55:21;;;;;;;8.32;5.88;;;;;;;-3.77;75.26;99876.38;5007826;28;20041;-69
2022/12/15 03:57:46;;;;;;;12.05;7.75;;;;;;;-4.02;75.02;99886.16;5002136;28;20180;-70
2022/12/15 04:00:16;;;;;;;12.90;7.03;;;;;;;-3.96;74.99;99867.03;4999770;28;20045;-69
2022/12/15 04:02:42;;;;;;;11.45;6.72;;;;;;;-3.89;75.00;99871.28;4982185;28;20519;-69
2022/12/15 04:05:24;;;;;;;12.88;6.70;;;;;;;-3.96;75.33;99882.66;4998261;28;20071;-70
2022/12/15 04:07:49;;;;;;;5.75;3.72;;;;;;;-3.80;75.24;99882.47;4979511;28;20064;-69
2022/12/15 04:10:13;;;;;;;6.93;5.18;;;;;;;-3.89;74.79;99884.31;4979589;28;20029;-71
2022/12/15 04:12:38;;;;;;;14.70;9.25;;;;;;;-4.16;74.47;99886.25;4997312;28;20136;-70
2022/12/15 04:15:04;;;;;;;14.68;8.23;;;;;;;-4.16;74.46;99890.59;4997272;28;20420;-69
2022/12/15 04:17:28;;;;;;;12.63;6.53;;;;;;;-4.04;75.09;99898.31;4996668;28;20532;-70
2022/12/15 04:20:08;;;;;;;12.27;6.50;;;;;;;-4.03;74.56;99900.03;4996701;28;20511;-71
2022/12/15 04:22:32;;;;;;;11.98;6.30;;;;;;;-3.98;75.04;99902.63;4997159;28;20058;-70
2022/12/15 05:33:04;;;;;;;12.25;6.55;;;;;;;-4.56;75.36;99937.75;4964646;28;20496;-69
2022/12/15 05:35:29;;;;;;;11.75;6.70;;;;;;;-4.61;75.50;99930.81;4996413;28;20407;-69
2022/12/15 05:37:53;;;;;;;12.43;7.10;;;;;;;-4.62;75.84;99939.50;4996432;28;20033;-69
2022/12/15 05:40:18;;;;;;;11.02;6.45;;;;;;;-4.62;75.76;99931.69;4994920;28;20048;-70
2022/12/15 05:42:43;;;;;;;7.75;4.57;;;;;;;-4.30;76.13;99941.94;4983325;28;20041;-73
2022/12/15 05:45:09;;;;;;;8.88;5.00;;;;;;;-4.11;74.95;99946.13;4990359;28;20053;-70
2022/12/15 05:47:34;;;;;;;8.90;6.20;;;;;;;-4.34;74.62;99946.28;4996148;28;20503;-71
2022/12/15 05:49:59;;;;;;;11.18;7.07;;;;;;;-4.60;74.74;99949.03;4995892;28;20500;-70
2022/12/15 05:52:24;;;;;;;9.00;5.90;;;;;;;-4.64;75.50;99952.53;4995560;28;20553;-71
2022/12/15 05:54:48;;;;;;;10.38;6.13;;;;;;;-4.61;74.53;99959.44;4972837;28;20381;-70
2022/12/15 05:57:13;;;;;;;17.25;9.75;;;;;;;-4.97;75.72;99958.78;4988578;28;20053;-72
2022/12/15 05:59:37;;;;;;;9.52;5.47;;;;;;;-4.91;75.78;99957.88;4998080;28;20095;-70
2022/12/15 06:02:02;;;;;;;17.90;9.55;;;;;;;-4.97;75.38;99953.56;4997934;28;20045;-72
2022/12/15 06:04:27;;;;;;;19.52;9.43;;;;;;;-5.20;75.29;99955.38;4979711;28;20049;-71
2022/12/15 06:06:52;;;;;;;16.70;9.57;;;;;;;-5.34;76.81;99952.81;4997022;28;20533;-71
2022/12/15 06:09:16;;;;;;;16.58;9.00;;;;;;;-5.30;76.74;99957.13;4996730;28;20496;-71
2022/12/15 06:11:42;;;;;;;14.23;8.35;;;;;;;-5.27;76.75;99964.06;4999681;28;20037;-71
2022/12/15 06:14:07;;;;;;;11.13;6.80;;;;;;;-5.14;76.56;99970.94;4966117;28;20411;-71
2022/12/15 06:16:32;;;;;;;14.63;8.85;;;;;;;-5.10;76.06;99967.47;4982094;28;20436;-70
2022/12/15 06:19:00;;;;;;;12.45;5.57;;;;;;;-4.91;75.82;99979.53;4982661;28;20726;-72
2022/12/15 06:21:28;;;;;;;20.98;9.10;;;;;;;-5.22;76.28;99976.19;4968245;28;20049;-71
2022/12/15 06:23:54;;;;;;;23.17;12.15;;;;;;;-5.49;76.51;100000.47;4999817;28;20356;-71
2022/12/15 06:26:21;;;;;;;10.57;5.28;;;;;;;-5.27;77.05;99998.69;4999061;28;20041;-72
2022/12/15 06:28:48;;;;;;;14.60;8.63;;;;;;;-5.43;76.47;99998.75;4983790;28;20069;-72
2022/12/15 06:31:13;;;;;;;14.05;7.97;;;;;;;-5.35;76.00;99999.59;5004402;28;20045;-72
2022/12/15 06:33:38;;;;;;;17.00;9.55;;;;;;;-5.74;76.72;100003.94;5005789;28;20047;-69
2022/12/15 06:36:05;;;;;;;14.38;8.50;;;;;;;-5.55;77.30;100013.47;4989633;28;20041;-69
2022/12/15 06:38:31;;;;;;;14.70;8.55;;;;;;;-5.69;76.68;100010.00;5005133;28;20088;-69
2022/12/15 06:40:57;;;;;;;12.25;6.10;;;;;;;-5.54;76.59;100006.56;4978753;28;20053;-69
2022/12/15 06:43:21;;;;;;;14.80;8.23;;;;;;;-5.47;76.94;100021.25;4961640;28;20038;-68
2022/12/15 06:45:50;;;;;;;11.70;6.40;;;;;;;-5.30;75.66;100032.47;4998205;28;20179;-70
2022/12/15 06:48:15;;;;;;;16.17;9.65;;;;;;;-5.26;74.87;100023.81;4936983;28;20045;-69
2022/12/15 06:50:40;;;;;;;14.75;8.50;;;;;;;-5.52;75.00;100029.03;4997029;28;20182;-69
2022/12/15 06:53:05;;;;;;;7.95;4.55;;;;;;;-5.22;75.42;100035.09;5000337;28;20184;-70
2022/12/15 06:55:29;;;;;;;15.48;8.30;;;;;;;-5.42;74.75;100026.47;5001440;28;20105;-70
2022/12/15 06:57:54;;;;;;;8.90;5.15;;;;;;;-5.39;75.85;100036.81;4983108;28;20045;-69
2022/12/15 07:00:19;;;;;;;18.48;9.27;;;;;;;-5.64;76.28;100025.56;5001109;28;20041;-70
2022/12/15 07:02:43;;;;;;;11.25;5.20;;;;;;;-5.53;76.75;100024.69;4967490;28;20154;-70
2022/12/15 07:05:08;;;;;;;19.63;11.88;;;;;;;-5.61;76.03;100028.19;4983854;28;20076;-70
2022/12/15 07:07:32;;;;;;;7.80;5.22;;;;;;;-5.42;76.65;100042.03;4981220;28;20053;-71
2022/12/15 07:09:57;;;;;;;14.98;8.52;;;;;;;-5.47;75.24;100030.78;4963762;28;20049;-70
2022/12/15 07:12:22;;;;;;;10.45;7.18;;;;;;;-5.09;74.98;100042.00;4997075;28;20100;-71
2022/12/15 07:14:48;;;;;;;8.95;5.75;;;;;;;-5.23;74.42;100033.34;4997701;28;20045;-69
2022/12/15 07:17:13;;;;;;;15.52;8.52;;;;;;;-5.49;74.49;100031.63;4980800;28;20469;-69
2022/12/15 07:19:39;;;;;;;10.05;6.13;;;;;;;-5.44;74.54;100033.38;4965008;28;20045;-69
2022/12/15 07:22:03;;;;;;;11.85;6.75;;;;;;;-5.35;74.96;100047.22;4979881;28;20100;-65
2022/12/15 07:24:28;;;;;;;16.80;9.43;;;;;;;-5.44;73.55;100041.16;4962557;28;20141;-63
2022/12/15 07:26:53;;;;;;;19.23;11.27;;;;;;;-5.90;74.72;100038.59;4978898;28;20049;-64
2022/12/15 07:29:18;;;;;;;14.63;9.20;;;;;;;-5.81;74.84;100042.91;4996766;28;20049;-65
2022/12/15 07:31:42;;;;;;;7.10;4.97;;;;;;;-5.70;75.87;100042.03;4961100;28;20385;-65
2022/12/15 07:34:07;;;;;;;9.05;5.80;;;;;;;-5.67;75.16;100036.84;4996702;28;20115;-63
2022/12/15 07:36:31;;;;;;;12.85;7.43;;;;;;;-5.65;75.09;100034.25;4978806;28;20120;-65
2022/12/15 07:38:59;;;;;;;7.93;5.00;;;;;;;-5.51;74.79;100038.56;4996632;28;20053;-65
2022/12/15 07:41:24;;;;;;;14.38;7.60;;;;;;;-5.66;74.93;100036.00;4975798;28;20128;-66
2022/12/15 07:43:48;;;;;;;15.50;8.30;;;;;;;-5.68;75.89;100039.44;4993984;28;20128;-66
2022/12/15 07:46:15;;;;;;;13.85;8.80;;;;;;;-5.66;75.76;100041.19;4979093;28;20492;-64
2022/12/15 07:48:40;;;;;;;8.82;4.88;;;;;;;-5.40;76.10;100069.72;4978800;28;20151;-66
2022/12/15 07:51:05;;;;;;;8.65;3.97;;;;;;;-5.26;75.01;100056.72;4979591;28;20037;-70
2022/12/15 07:53:30;;;;;;;18.00;8.77;;;;;;;-5.61;74.14;100068.00;4998032;28;20063;-70
2022/12/15 07:55:57;;;;;;;12.35;7.82;;;;;;;-5.58;74.28;100073.22;4998125;28;20049;-72
2022/12/15 07:58:22;;;;;;;12.07;6.97;;;;;;;-5.50;74.13;100062.81;4989592;28;20137;-70
2022/12/15 08:00:47;;;;;;;14.85;7.93;;;;;;;-5.65;73.99;100058.50;4990628;28;20124;-69
2022/12/15 08:03:11;;;;;;;16.67;8.70;;;;;;;-5.93;75.15;100055.03;4961945;28;20129;-70
2022/12/15 08:05:36;;;;;;;16.23;7.82;;;;;;;-5.84;75.52;100054.13;4955558;28;20049;-70
2022/12/15 08:08:01;;;;;;;13.98;7.00;;;;;;;-5.70;75.67;100052.44;4980375;28;20060;-71
2022/12/15 08:10:26;;;;;;;8.43;3.92;;;;;;;-5.27;74.79;100047.19;4944405;28;20068;-72
2022/12/15 08:12:51;;;;;;;12.27;8.35;;;;;;;-5.65;74.15;100045.53;4961200;28;20069;-69
2022/12/15 08:15:16;;;;;;;8.10;5.43;;;;;;;-5.55;74.51;100052.44;4997511;28;20045;-71
2022/12/15 08:17:40;;;;;;;13.77;7.72;;;;;;;-5.86;75.55;100042.88;4997788;28;20111;-70
2022/12/15 08:20:05;;;;;;;15.13;7.72;;;;;;;-5.59;75.22;100050.69;5001743;28;20060;-71
2022/12/15 08:22:30;;;;;;;14.60;7.38;;;;;;;-5.59;74.65;100045.50;4967581;28;20033;-71
2022/12/15 08:24:55;;;;;;;6.38;3.90;;;;;;;-5.46;75.10;100050.69;4961312;28;20053;-70
2022/12/15 08:27:20;;;;;;;7.13;5.28;;;;;;;-5.28;74.45;100045.47;4995640;28;20124;-70
2022/12/15 08:29:45;;;;;;;10.18;5.90;;;;;;;-5.21;74.22;100048.06;4996729;28;20049;-71
2022/12/15 08:32:09;;;;;;;10.73;7.15;;;;;;;-5.42;74.20;100055.03;4998620;28;20045;-72
2022/12/15 08:34:34;;;;;;;14.95;7.32;;;;;;;-5.55;75.20;100049.84;4981868;28;20103;-72
2022/12/15 08:36:59;;;;;;;11.63;6.40;;;;;;;-5.50;75.07;100057.63;4998614;28;20049;-71
2022/12/15 08:39:23;;;;;;;11.65;7.55;;;;;;;-5.52;75.27;100044.63;4998535;28;20447;-72
2022/12/15 08:41:49;;;;;;;13.50;7.60;;;;;;;-5.44;75.21;100044.63;4979116;28;20062;-72
2022/12/15 08:44:15;;;;;;;15.07;8.00;;;;;;;-5.57;74.89;100041.19;4997070;28;20041;-72
2022/12/15 08:46:40;;;;;;;9.57;4.80;;;;;;;-5.28;75.21;100053.25;4979715;28;20045;-72
2022/12/15 08:49:05;;;;;;;12.23;6.25;;;;;;;-4.84;74.41;100058.38;4976352;28;20044;-73
2022/12/15 08:51:31;;;;;;;11.68;6.32;;;;;;;-4.96;74.11;100050.59;4996609;28;20048;-71
2022/12/15 08:53:57;;;;;;;13.43;6.78;;;;;;;-4.94;73.78;100048.88;4975567;28;20077;-72
2022/12/15 08:56:23;;;;;;;13.38;7.07;;;;;;;-5.14;73.84;100039.38;4961520;28;20044;-72
2022/12/15 08:58:49;;;;;;;12.60;7.40;;;;;;;-5.20;73.69;100048.94;4995993;28;20033;-71
2022/12/15 09:01:20;;;;;;;14.27;7.75;;;;;;;-5.17;73.44;100048.91;4997039;28;20045;-72
2022/12/15 09:03:45;;;;;;;11.00;6.78;;;;;;;-5.07;73.27;100044.56;4976120;28;20104;-74
2022/12/15 09:06:14;;;;;;;12.80;6.93;;;;;;;-5.08;73.21;100048.06;4978944;28;20096;-71
2022/12/15 09:08:39;;;;;;;10.85;5.80;;;;;;;-4.96;73.34;100041.06;4995095;28;20133;-72
2022/12/15 09:11:04;;;;;;;13.77;7.28;;;;;;;-5.01;72.76;100050.63;4995228;28;20172;-72
2022/12/15 09:13:29;;;;;;;10.65;5.95;;;;;;;-4.88;73.56;100039.34;4996409;28;20046;-74
2022/12/15 09:16:04;;;;;;;8.98;5.18;;;;;;;-4.57;73.39;100036.59;4995290;28;20102;-73
2022/12/15 09:18:28;;;;;;;9.15;5.28;;;;;;;-4.65;73.01;100030.59;4979188;28;20048;-71
2022/12/15 09:20:54;;;;;;;10.00;5.63;;;;;;;-4.58;73.36;100020.13;4994889;28;20037;-72
2022/12/15 09:23:20;;;;;;;12.73;6.68;;;;;;;-4.90;72.65;100015.06;4996640;28;20047;-71
2022/12/15 09:25:45;;;;;;;12.55;7.57;;;;;;;-5.09;72.83;100021.19;4996603;28;20069;-75
2022/12/15 09:28:10;;;;;;;10.57;6.20;;;;;;;-4.91;73.05;100021.13;4996521;28;20573;-72
2022/12/15 09:30:34;;;;;;;14.57;7.28;;;;;;;-4.95;72.83;100011.59;4971979;28;20382;-69
2022/12/15 09:33:00;;;;;;;13.00;6.35;;;;;;;-4.69;73.20;100011.50;4979915;28;20056;-67
2022/12/15 09:35:27;;;;;;;13.52;9.68;;;;;;;-4.98;72.57;100013.38;4947085;28;20056;-68
2022/12/15 09:37:52;;;;;;;16.08;8.82;;;;;;;-5.10;72.98;99993.47;4994927;28;20136;-66
2022/12/15 09:40:17;;;;;;;14.32;8.02;;;;;;;-4.99;73.50;100011.63;4963316;28;20120;-67
2022/12/15 09:42:52;;;;;;;12.30;7.20;;;;;;;-4.72;73.22;99989.84;4960712;28;20068;-66
2022/12/15 09:45:25;;;;;;;4.95;2.75;;;;;;;-4.51;73.11;99992.34;4979703;28;20118;-67
2022/12/15 09:47:55;;;;;;;8.43;4.70;;;;;;;-4.61;72.61;99977.66;4956969;28;20053;-65
2022/12/15 09:50:28;;;;;;;12.60;7.18;;;;;;;-4.79;72.82;99969.09;4940893;28;20046;-65
2022/12/15 09:52:57;;;;;;;10.93;6.82;;;;;;;-4.82;73.00;99971.69;4911228;28;20078;-66
2022/12/15 09:55:25;;;;;;;10.95;6.90;;;;;;;-4.90;73.04;99964.78;4956973;28;20046;-66
2022/12/15 09:57:54;;;;;;;12.63;7.13;;;;;;;-4.86;72.85;99963.94;4940744;28;20058;-66
2022/12/15 10:00:24;;;;;;;18.83;11.85;;;;;;;-5.14;73.70;99964.00;4924506;28;20149;-66
2022/12/15 10:02:48;;;;;;;11.32;6.15;;;;;;;-4.93;73.21;99955.25;4956902;28;20089;-67
2022/12/15 10:05:35;;;;;;;11.98;7.30;;;;;;;-4.70;73.32;99947.34;4940840;28;20061;-67
2022/12/15 10:08:00;;;;;;;17.65;7.18;;;;;;;-4.71;72.37;99924.81;4940532;28;20081;-67
2022/12/15 10:10:29;;;;;;;8.52;5.00;;;;;;;-4.63;72.52;99927.41;4956964;28;20042;-66
2022/12/15 10:12:57;;;;;;;10.98;6.50;;;;;;;-4.66;72.96;99930.00;4956507;28;20056;-66
2022/12/15 10:15:25;;;;;;;11.75;6.55;;;;;;;-4.72;72.77;99923.09;4958661;28;20137;-67
2022/12/15 10:17:58;;;;;;;8.70;4.60;;;;;;;-4.59;72.81;99913.47;4931539;28;20445;-67
2022/12/15 10:20:25;;;;;;;12.82;6.82;;;;;;;-4.72;71.95;99922.22;4999925;28;20039;-66
2022/12/15 10:22:50;;;;;;;15.00;8.35;;;;;;;-5.01;72.01;99923.25;4968721;28;20607;-66
2022/12/15 10:25:21;;;;;;;13.60;7.60;;;;;;;-4.94;72.24;99919.72;4995284;28;20531;-68
2022/12/15 10:28:14;;;;;;;18.40;8.35;;;;;;;-4.86;71.99;99925.78;5009367;28;20099;-68
2022/12/15 10:30:58;;;;;;;8.90;5.18;;;;;;;-4.49;73.09;99922.94;4985228;28;20037;-66
2022/12/15 10:33:25;;;;;;;18.52;9.23;;;;;;;-4.73;72.17;99928.28;4996706;28;20045;-65
2022/12/15 10:35:52;;;;;;;16.58;9.10;;;;;;;-4.72;72.38;99932.63;4996682;28;20500;-65
2022/12/15 10:38:23;;;;;;;15.20;8.85;;;;;;;-4.73;72.18;99943.91;4980449;28;20064;-68
2022/12/15 10:40:55;;;;;;;16.95;10.00;;;;;;;-4.83;71.56;99941.34;4980185;28;20041;-67
2022/12/15 10:43:34;;;;;;;10.13;6.63;;;;;;;-4.69;72.17;99943.88;4996339;28;20108;-67
2022/12/15 10:46:12;;;;;;;16.30;8.77;;;;;;;-4.62;72.31;99934.31;4984889;28;20045;-66
2022/12/15 10:48:37;;;;;;;14.90;8.55;;;;;;;-4.68;71.30;99936.94;4979523;28;20420;-67
2022/12/15 10:51:21;;;;;;;13.10;7.25;;;;;;;-4.86;71.64;99935.31;4953658;28;20416;-68
2022/12/15 10:53:46;;;;;;;15.15;8.30;;;;;;;-4.87;71.52;99944.84;4961075;28;20044;-67
2022/12/15 10:56:18;;;;;;;15.35;7.78;;;;;;;-4.76;72.06;99952.59;4958139;28;20042;-67
2022/12/15 10:58:52;;;;;;;13.27;7.75;;;;;;;-4.83;71.59;99946.56;4975118;28;20044;-67
2022/12/15 11:01:24;;;;;;;17.88;8.55;;;;;;;-4.98;72.10;99964.84;4948881;28;20061;-71
2022/12/15 11:03:51;;;;;;;16.55;9.02;;;;;;;-4.91;72.08;99963.94;4960988;28;20038;-70
2022/12/15 11:06:20;;;;;;;20.60;11.77;;;;;;;-5.02;72.23;99967.44;4990392;28;20076;-69
2022/12/15 11:08:46;;;;;;;17.83;9.50;;;;;;;-4.92;72.40;99966.53;4980800;28;20041;-70
2022/12/15 11:14:23;;;;;;;16.15;9.23;;;;;;;-4.84;72.05;99960.41;4997632;28;20056;-69
2022/12/15 11:16:52;;;;;;;14.02;7.28;;;;;;;-4.82;72.34;99957.81;4960827;28;20947;-70
2022/12/15 11:19:57;;;;;;;18.13;9.40;;;;;;;-5.06;72.39;99974.38;4932868;28;20044;-71
2022/12/15 11:22:31;;;;;;;18.13;9.82;;;;;;;-4.99;72.31;99960.50;4901194;29;20059;-70
2022/12/15 11:25:20;;;;;;;;;;;;;;;-4.83;72.66;99956.94;4918047;29;20122;-71
2022/12/15 11:27:47;;;;;;;21.95;10.93;;;;;;;-4.98;72.38;99962.25;4900449;29;20377;-72
2022/12/15 11:30:15;;;;;;;22.33;11.63;;;;;;;-4.89;72.46;99954.41;4919348;29;20071;-73
2022/12/15 11:32:45;;;;;;;19.15;10.85;;;;;;;-4.90;72.66;99944.00;4919072;29;20059;-72
2022/12/15 11:35:13;;;;;;;13.73;8.32;;;;;;;-4.92;72.86;99941.41;4919441;29;20395;-71
2022/12/15 11:37:48;;;;;;;18.75;9.20;;;;;;;-4.82;72.58;99937.00;4919297;29;20628;-73
2022/12/15 11:40:22;;;;;;;8.10;6.70;;;;;;;-4.59;72.45;99934.28;4871210;29;20293;-68
2022/12/15 11:43:34;;;;;;;17.38;7.88;;;;;;;-4.59;71.93;99929.94;4916609;28;20031;-69
2022/12/15 11:46:22;;;;;;;16.85;9.80;;;;;;;-4.44;71.53;99944.63;4844565;29;20751;-70
2022/12/15 11:49:09;;;;;;;16.27;9.18;;;;;;;-4.66;71.58;99928.28;4860057;29;20053;-69
2022/12/15 11:51:56;;;;;;;11.20;6.20;;;;;;;-4.86;72.41;99925.78;4860316;29;20048;-69
2022/12/15 11:54:49;;;;;;;17.30;8.98;;;;;;;-4.95;72.28;99918.00;4860667;29;20133;-70
2022/12/15 11:57:19;;;;;;;20.80;9.48;;;;;;;-5.04;72.83;99925.84;4857923;28;20051;-67
2022/12/15 12:00:10;;;;;;;21.13;9.95;;;;;;;-5.00;72.51;99919.78;4935850;28;20142;-69
2022/12/15 12:02:52;;;;;;;16.38;8.77;;;;;;;-5.14;71.99;99921.56;4930108;28;20126;-67
2022/12/15 12:05:34;;;;;;;16.98;9.23;;;;;;;-4.89;72.74;99933.59;4904807;28;20042;-68
2022/12/15 12:08:14;;;;;;;13.30;5.43;;;;;;;-4.78;72.76;99918.81;4937933;28;20066;-68
2022/12/15 12:10:47;;;;;;;16.92;8.90;;;;;;;-4.89;72.30;99905.00;4935793;28;20042;-69
2022/12/15 12:13:28;;;;;;;20.10;9.25;;;;;;;-4.99;72.23;99900.72;4935259;28;20097;-67
2022/12/15 12:16:30;;;;;;;14.80;9.20;;;;;;;-5.10;71.98;99893.84;4935786;28;20054;-73
2022/12/15 12:19:02;;;;;;;12.00;6.93;;;;;;;-4.91;72.70;99893.72;4922727;28;20042;-68
2022/12/15 12:21:49;;;;;;;14.15;7.10;;;;;;;-4.92;72.09;99891.13;4960208;28;20048;-70
2022/12/15 12:24:25;;;;;;;18.63;8.55;;;;;;;-4.90;72.89;99873.78;4977805;28;20184;-70
2022/12/15 12:27:17;;;;;;;14.93;7.68;;;;;;;-4.92;72.34;99873.81;4975011;28;20041;-69
2022/12/15 12:29:50;;;;;;;20.25;9.02;;;;;;;-5.07;72.85;99873.00;4994166;28;20056;-71
2022/12/15 12:32:26;;;;;;;10.60;6.28;;;;;;;-4.90;72.97;99877.25;4997121;28;20536;-73
2022/12/15 12:34:57;;;;;;;6.18;3.78;;;;;;;-4.79;72.59;99885.88;4996585;28;20072;-73
2022/12/15 12:37:30;;;;;;;12.02;5.75;;;;;;;-4.63;72.40;99865.84;4977031;28;20567;-73
2022/12/15 12:40:01;;;;;;;15.63;8.90;;;;;;;-4.43;71.02;99874.34;4996287;28;20060;-72
2022/12/15 12:42:54;;;;;;;9.10;5.00;;;;;;;-4.49;70.54;99866.56;4978952;28;20051;-72
2022/12/15 12:45:22;;;;;;;11.73;6.78;;;;;;;-4.58;69.82;99858.84;4992523;28;20050;-73
2022/12/15 12:47:51;;;;;;;13.23;6.00;;;;;;;-4.58;70.10;99861.44;4996800;28;20610;-72
2022/12/15 12:50:20;;;;;;;16.77;7.78;;;;;;;-4.63;70.18;99849.38;4959244;28;20049;-72
2022/12/15 12:52:57;;;;;;;13.52;6.70;;;;;;;-4.83;70.55;99842.53;4993769;28;20056;-73
2022/12/15 12:55:25;;;;;;;16.13;8.57;;;;;;;-4.87;70.62;99827.84;4995250;28;20045;-74
2022/12/15 12:57:50;;;;;;;17.20;7.90;;;;;;;-4.91;70.84;99833.06;4996364;28;20046;-73
2022/12/15 13:00:19;;;;;;;8.27;4.68;;;;;;;-4.69;70.90;99833.78;4975287;28;20042;-72
2022/12/15 13:02:46;;;;;;;8.18;5.40;;;;;;;-4.78;70.32;99834.72;4955664;28;20033;-73
2022/12/15 13:05:36;;;;;;;16.27;8.50;;;;;;;-4.78;70.62;99825.19;4995539;28;20049;-74
2022/12/15 13:08:09;;;;;;;22.98;10.02;;;;;;;-5.01;70.89;99818.41;4965194;28;20084;-73
2022/12/15 13:10:42;;;;;;;16.27;8.07;;;;;;;-4.83;71.04;99806.13;4997954;28;20099;-72
2022/12/15 13:13:29;;;;;;;15.68;7.35;;;;;;;-4.80;70.06;99811.31;4966093;28;20126;-73
2022/12/15 13:16:05;;;;;;;13.27;6.90;;;;;;;-4.91;70.66;99814.88;4996061;28;20134;-73
2022/12/15 13:19:07;;;;;;;17.73;8.60;;;;;;;-5.08;70.69;99803.72;4980380;28;20044;-73
2022/12/15 13:21:44;;;;;;;8.32;4.70;;;;;;;-5.02;71.54;99799.34;4986064;28;20499;-76
2022/12/15 13:24:34;;;;;;;12.93;7.38;;;;;;;-5.01;71.53;99798.47;4988597;28;20068;-72
2022/12/15 13:27:07;;;;;;;12.75;6.20;;;;;;;-5.09;71.09;99786.41;5004078;28;20041;-73
2022/12/15 13:29:32;;;;;;;12.77;6.78;;;;;;;-5.01;71.26;99782.88;5003053;28;20156;-72
2022/12/15 13:31:57;;;;;;;14.88;8.57;;;;;;;-5.01;71.62;99776.81;4969189;28;20080;-71
2022/12/15 13:34:25;;;;;;;14.65;8.73;;;;;;;-4.95;70.99;99774.16;5004244;28;20099;-73
2022/12/15 13:36:52;;;;;;;17.83;8.18;;;;;;;-5.06;71.24;99779.44;5001586;28;20518;-72
2022/12/15 13:39:17;;;;;;;14.05;7.80;;;;;;;-5.00;71.25;99766.41;5002084;28;20053;-72
2022/12/15 13:41:47;;;;;;;9.77;4.88;;;;;;;-4.93;71.14;99759.41;5002653;28;20041;-74
2022/12/15 13:44:28;;;;;;;13.68;7.97;;;;;;;-5.00;71.31;99755.16;5002593;28;20049;-72
2022/12/15 13:46:54;;;;;;;7.75;4.97;;;;;;;-4.87;70.51;99768.03;4973175;28;20041;-72
2022/12/15 13:49:30;;;;;;;18.90;8.80;;;;;;;-4.93;70.59;99770.69;5002998;28;20084;-72
2022/12/15 13:52:01;;;;;;;13.32;6.88;;;;;;;-5.01;70.14;99756.88;4968410;28;20071;-71
2022/12/15 13:54:51;;;;;;;7.60;4.78;;;;;;;-4.85;70.15;99765.41;5002093;28;20067;-75
2022/12/15 13:57:18;;;;;;;11.43;5.40;;;;;;;-4.99;69.88;99754.28;5000971;28;20500;-72
2022/12/15 13:59:49;;;;;;;19.23;9.13;;;;;;;-4.90;69.27;99762.88;4986689;28;20088;-73
2022/12/15 14:02:31;;;;;;;9.60;5.72;;;;;;;-4.95;69.71;99763.75;4988991;28;20045;-72
2022/12/15 14:05:06;;;;;;;13.20;6.10;;;;;;;-4.92;68.94;99759.41;4966628;28;20058;-74